Bookmark and Share
Track history (hours):
 

CMA CGM Thalassa

Last reported at 2014-Apr-15 15:33 UTC. Time now 2014-Apr-18 08:08 UTC.
Position N 01°28' E 103°10'.

Length 347 m; draft 14.7 m.

Type: Ship (hazmat cat A). MMSI: 212151000.

NotesDate/timePositionNaut miles runAvg speedWind from/ knotsBaromVisibWave heightAir tempDewpointWater temp
2014-Apr-15 15:33N 01°28' E 103°10'1817.8
2014-Apr-15 14:33N 01°16' E 103°23'15 7.8
2014-Apr-15 12:34N 01°12' E 103°38'8 7.5
2014-Apr-15 11:34N 01°16' E 103°44'1 1.3
2014-Apr-15 10:31N 01°17' E 103°46'0 0.0
2014-Apr-15 09:34N 01°17' E 103°46'0 0.0
2014-Apr-15 08:30N 01°17' E 103°46'0 0.0
2014-Apr-15 07:30N 01°17' E 103°46'0 0.0
2014-Apr-15 06:32N 01°17' E 103°46'0 0.0
2014-Apr-15 05:32N 01°17' E 103°46'0 0.0
2014-Apr-15 03:32N 01°17' E 103°46'0 0.0
2014-Apr-15 02:31N 01°17' E 103°46'0 0.0
2014-Apr-15 01:34N 01°17' E 103°46'0 0.0
2014-Apr-15 00:32N 01°17' E 103°46'0 0.0
2014-Apr-14 23:33N 01°17' E 103°46'0 0.0
2014-Apr-14 22:32N 01°17' E 103°46'0 0.0
2014-Apr-14 20:31N 01°17' E 103°46'0 0.0
2014-Apr-14 19:31N 01°17' E 103°46'0 0.0
2014-Apr-14 18:33N 01°17' E 103°46'0 0.0
2014-Apr-14 17:33N 01°17' E 103°46'0 0.0
2014-Apr-14 16:30N 01°17' E 103°46'0 0.0
2014-Apr-14 15:32N 01°17' E 103°46'0 0.0
2014-Apr-14 11:33N 01°17' E 103°46'0 0.0
2014-Apr-14 10:33N 01°17' E 103°46'0 0.0
2014-Apr-14 08:31N 01°16' E 103°45'6 6.7
2014-Apr-14 07:33N 01°12' E 103°50'  
2014-Apr-10 16:05N 22°30' E 116°08'1121.2
2014-Apr-10 15:34N 22°34' E 116°19'2221.6
2014-Apr-10 14:32N 22°42' E 116°41'2321.0
2014-Apr-10 13:27N 22°55' E 117°02'1921.3
2014-Apr-10 12:32N 23°04' E 117°20'2220.6
2014-Apr-10 11:29N 23°16' E 117°40'1920.6
2014-Apr-10 10:33N 23°30' E 117°54'2220.9
2014-Apr-10 09:31N 23°42' E 118°14'2121.3
2014-Apr-10 08:33N 23°53' E 118°33'2121.3
2014-Apr-10 07:33N 24°06' E 118°51'2121.2
2014-Apr-10 06:33N 24°20' E 119°09'2220.8
2014-Apr-10 05:30N 24°34' E 119°27'2220.8
2014-Apr-10 04:27N 24°47' E 119°47'2120.7
2014-Apr-10 03:26N 25°01' E 120°04'8120.8
2014-Apr-09 23:32N 26°08' E 120°55'6421.4
2014-Apr-09 20:33N 27°02' E 121°33'3021.4
2014-Apr-09 19:09N 27°26' E 121°52'7520.7
2014-Apr-09 15:33N 28°33' E 122°29'2120.9
2014-Apr-09 14:33N 28°52' E 122°39'2120.9
2014-Apr-09 13:33N 29°12' E 122°47'2120.7
2014-Apr-09 12:32N 29°32' E 122°53'2120.8
2014-Apr-09 11:31N 29°52' E 123°02'2020.5
2014-Apr-09 10:33N 30°12' E 123°03'2519.4
2014-Apr-09 09:15N 30°29' E 122°41'1318.1
2014-Apr-09 08:34N 30°31' E 122°27'1313.3
2014-Apr-09 07:33N 30°34' E 122°12'7 0.3
2014-Apr-08 04:29N 30°37' E 122°05'0 0.1
2014-Apr-07 22:32N 30°36' E 122°05'1111.1
2014-Apr-07 21:33N 30°33' E 122°17'14 0.6
2014-Apr-06 23:32N 30°30' E 122°32'  

Dump ship's entire track history

sailing weather and tide predictions

CMA CGM Thalassa — 5BNE2 — position and weather